Time;durP1;ratioP1;P1;durP2;ratioP2;P2;SDS_P1;SDS_P2;PMS_P1;PMS_P2;Temp;Humidity;BMP_temperature;BMP_pressure;BME280_temperature;BME280_humidity;BME280_pressure;Samples;Min_cycle;Max_cycle;Signal;HPM_P1;HPM_P2
2021/04/11 00:00:32;;;;;;;1.50;1.40;;;;;;;9.06;99.54;99318.63;4996529;28;20437;-71
2021/04/11 00:03:00;;;;;;;2.53;1.80;;;;;;;9.05;99.95;99316.91;4995334;28;20058;-71
2021/04/11 00:05:33;;;;;;;3.83;1.40;;;;;;;9.00;100.00;99308.38;5005555;28;20062;-71
2021/04/11 00:07:59;;;;;;;1.77;1.50;;;;;;;9.07;100.00;99310.53;5015973;28;20066;-71
2021/04/11 00:10:29;;;;;;;1.90;1.40;;;;;;;9.02;100.00;99302.00;5015790;28;20061;-71
2021/04/11 00:13:01;;;;;;;3.20;1.65;;;;;;;8.99;100.00;99301.38;5015732;28;20096;-70
2021/04/11 00:15:27;;;;;;;3.28;1.63;;;;;;;9.03;100.00;99309.03;5015574;28;20069;-70
2021/04/11 00:17:54;;;;;;;2.28;1.58;;;;;;;9.06;100.00;99298.16;5014693;28;20069;-71
2021/04/11 00:20:20;;;;;;;3.40;1.90;;;;;;;9.02;100.00;99295.81;5015937;28;20061;-72
2021/04/11 00:22:46;;;;;;;2.45;1.92;;;;;;;9.00;100.00;99303.94;5014657;28;20058;-72
2021/04/11 00:25:17;;;;;;;4.05;2.22;;;;;;;8.95;100.00;99298.91;5014519;28;20497;-71
2021/04/11 00:27:44;;;;;;;7.00;5.47;;;;;;;9.03;100.00;99317.00;5013940;28;20052;-71
2021/04/11 00:30:11;;;;;;;13.68;10.23;;;;;;;8.77;100.00;99311.66;5014650;28;20435;-71
2021/04/11 00:32:39;;;;;;;18.15;14.85;;;;;;;8.43;100.00;99321.84;5015949;28;20132;-71
2021/04/11 00:35:06;;;;;;;18.60;15.05;;;;;;;8.16;100.00;99298.75;4998419;28;20081;-72
2021/04/11 00:37:33;;;;;;;17.83;15.05;;;;;;;8.00;100.00;99326.34;5014230;28;20053;-72
2021/04/11 00:39:59;;;;;;;19.38;15.32;;;;;;;7.77;100.00;99325.13;5014684;28;20072;-71
2021/04/11 00:42:34;;;;;;;19.63;15.93;;;;;;;7.56;100.00;99322.00;5015271;28;20104;-71
2021/04/11 00:45:38;;;;;;;21.45;16.75;;;;;;;7.44;100.00;99326.28;5015762;28;20049;-71
2021/04/11 00:48:07;;;;;;;23.65;18.13;;;;;;;7.30;100.00;99322.66;5008743;28;20061;-70
2021/04/11 00:50:34;;;;;;;21.23;17.35;;;;;;;7.29;100.00;99317.44;5015484;28;20112;-70
2021/04/11 00:53:00;;;;;;;24.88;19.00;;;;;;;7.20;100.00;99318.88;5014998;28;20053;-72
2021/04/11 00:55:27;;;;;;;29.33;19.13;;;;;;;7.05;100.00;99334.78;5014373;28;20050;-70
2021/04/11 00:57:56;;;;;;;30.58;20.08;;;;;;;6.95;100.00;99335.38;5015387;28;20056;-70
2021/04/11 01:00:26;;;;;;;27.35;19.40;;;;;;;6.88;100.00;99322.53;5015267;28;20354;-71
2021/04/11 01:02:54;;;;;;;23.83;19.25;;;;;;;6.82;100.00;99336.16;5015437;28;20054;-70
2021/04/11 01:05:29;;;;;;;23.77;18.08;;;;;;;6.81;100.00;99338.88;5015155;28;20057;-70
2021/04/11 01:07:56;;;;;;;25.80;18.92;;;;;;;6.77;100.00;99332.91;5015542;28;20049;-70
2021/04/11 01:10:33;;;;;;;28.58;19.42;;;;;;;6.80;100.00;99327.41;5015905;28;20050;-70
2021/04/11 01:12:59;;;;;;;24.13;18.85;;;;;;;6.66;100.00;99330.88;5016249;28;20050;-70
2021/04/11 01:15:30;;;;;;;25.50;18.55;;;;;;;6.64;100.00;99327.44;5015535;28;20100;-70
2021/04/11 01:17:56;;;;;;;23.73;16.67;;;;;;;6.54;100.00;99329.78;5015664;28;20076;-70
2021/04/11 01:20:24;;;;;;;20.92;16.83;;;;;;;6.60;100.00;99337.38;5015347;28;20050;-70
2021/04/11 01:23:11;;;;;;;19.52;16.10;;;;;;;6.37;100.00;99334.25;5015048;28;20061;-69
2021/04/11 01:25:41;;;;;;;18.65;14.95;;;;;;;6.36;100.00;99336.97;5015009;28;20391;-69
2021/04/11 01:28:16;;;;;;;18.60;14.63;;;;;;;6.32;100.00;99338.13;5015111;28;20057;-70
2021/04/11 01:30:44;;;;;;;16.23;13.77;;;;;;;6.24;100.00;99344.72;5015130;28;20065;-70
2021/04/11 01:33:16;;;;;;;15.63;12.10;;;;;;;6.22;100.00;99340.44;5015298;28;20053;-71
2021/04/11 01:35:45;;;;;;;13.88;9.93;;;;;;;6.14;99.54;99348.78;5014866;28;20050;-70
2021/04/11 01:38:13;;;;;;;12.27;10.98;;;;;;;5.97;100.00;99341.75;5014994;28;20053;-71
2021/04/11 01:40:47;;;;;;;13.20;10.55;;;;;;;5.97;100.00;99349.69;5014980;28;20316;-70
2021/04/11 01:43:14;;;;;;;10.07;9.05;;;;;;;5.81;100.00;99354.97;5014635;28;20041;-70
2021/04/11 01:45:43;;;;;;;11.80;9.48;;;;;;;5.72;100.00;99361.63;5013669;28;20053;-70
2021/04/11 01:48:11;;;;;;;11.68;9.50;;;;;;;5.60;100.00;99352.56;5014558;28;20052;-70
2021/04/11 01:50:39;;;;;;;12.18;10.23;;;;;;;5.63;100.00;99365.63;5014466;28;20050;-70
2021/04/11 01:53:07;;;;;;;11.55;9.82;;;;;;;5.64;100.00;99355.88;5014392;28;20054;-70
2021/04/11 01:55:34;;;;;;;14.15;10.40;;;;;;;5.64;100.00;99354.09;5014822;28;20407;-71
2021/04/11 01:58:01;;;;;;;11.70;9.38;;;;;;;5.67;100.00;99363.69;5014386;28;20056;-71
2021/04/11 02:00:34;;;;;;;11.45;9.50;;;;;;;5.58;100.00;99373.81;5014207;28;20082;-71
2021/04/11 02:03:04;;;;;;;9.60;8.48;;;;;;;5.54;100.00;99374.06;5013361;28;20108;-71
2021/04/11 02:05:33;;;;;;;11.13;8.40;;;;;;;5.53;100.00;99385.56;5014137;28;20141;-70
2021/04/11 02:07:59;;;;;;;10.02;8.50;;;;;;;5.47;100.00;99378.81;5014248;28;20121;-70
2021/04/11 02:10:31;;;;;;;9.13;7.93;;;;;;;5.38;100.00;99379.28;5014466;28;20061;-71
2021/04/11 02:12:57;;;;;;;7.93;6.88;;;;;;;5.27;100.00;99372.78;5014399;28;20053;-70
2021/04/11 02:15:32;;;;;;;8.02;6.80;;;;;;;5.22;100.00;99384.53;5014515;28;20062;-70
2021/04/11 02:17:59;;;;;;;11.65;7.35;;;;;;;5.23;100.00;99384.44;5014963;28;20054;-71
2021/04/11 02:20:28;;;;;;;8.60;7.13;;;;;;;5.25;100.00;99392.31;5013051;28;20054;-71
2021/04/11 02:22:57;;;;;;;7.90;6.88;;;;;;;5.24;100.00;99385.31;5014543;28;20061;-71
2021/04/11 02:25:29;;;;;;;7.30;6.15;;;;;;;5.29;100.00;99393.88;5013383;28;20057;-70
2021/04/11 02:27:58;;;;;;;11.88;7.30;;;;;;;5.30;100.00;99401.72;5016443;28;20060;-70
2021/04/11 02:30:26;;;;;;;7.72;6.75;;;;;;;5.35;100.00;99401.50;5000636;28;20057;-70
2021/04/11 02:32:56;;;;;;;8.50;6.53;;;;;;;5.34;100.00;99402.41;5017754;28;20046;-70
2021/04/11 02:35:27;;;;;;;8.25;7.05;;;;;;;5.22;100.00;99381.91;5001516;28;20383;-70
2021/04/11 02:37:58;;;;;;;17.20;7.25;;;;;;;5.32;100.00;99387.56;5018000;28;20050;-70
2021/04/11 02:40:33;;;;;;;8.95;7.60;;;;;;;5.27;100.00;99375.44;5018493;28;20100;-71
2021/04/11 02:43:01;;;;;;;8.18;6.78;;;;;;;5.33;100.00;99382.19;5017007;28;20058;-71
2021/04/11 02:45:32;;;;;;;8.93;6.70;;;;;;;5.36;100.00;99386.47;5018544;28;20132;-71
2021/04/11 02:47:59;;;;;;;6.90;6.20;;;;;;;5.36;100.00;99384.69;5017767;28;20116;-71
2021/04/11 02:50:28;;;;;;;9.15;7.75;;;;;;;5.40;100.00;99396.81;5017302;28;20050;-71
2021/04/11 02:53:00;;;;;;;8.38;6.80;;;;;;;5.41;100.00;99392.38;5017385;28;20407;-71
2021/04/11 02:55:31;;;;;;;8.13;7.25;;;;;;;5.38;100.00;99400.47;5016998;28;20420;-71
2021/04/11 02:57:57;;;;;;;7.80;6.10;;;;;;;5.10;100.00;99389.53;5017100;28;20069;-71
2021/04/11 03:00:26;;;;;;;9.90;5.75;;;;;;;4.98;100.00;99380.44;5016901;28;20287;-71
2021/04/11 03:02:55;;;;;;;6.38;5.65;;;;;;;5.07;100.00;99405.53;5017122;28;20053;-71
2021/04/11 03:05:23;;;;;;;5.85;5.05;;;;;;;4.88;100.00;99387.09;5016811;28;20049;-71
2021/04/11 03:08:01;;;;;;;6.35;5.68;;;;;;;4.82;100.00;99403.25;5020268;28;20092;-70
2021/04/11 03:10:42;;;;;;;6.03;5.32;;;;;;;4.76;100.00;99423.78;5019662;28;20080;-70
2021/04/11 03:13:09;;;;;;;;;;;;;;;4.76;100.00;99422.94;5021587;28;20049;-71
2021/04/11 03:15:36;;;;;;;6.88;5.35;;;;;;;4.68;100.00;99425.94;5020921;28;20003;-70
2021/04/11 03:18:03;;;;;;;6.90;6.03;;;;;;;4.54;100.00;99415.19;5019194;28;20050;-71
2021/04/11 03:20:38;;;;;;;7.13;6.43;;;;;;;4.38;100.00;99408.00;5036517;28;20046;-71
2021/04/11 03:23:07;;;;;;;6.20;5.60;;;;;;;4.32;100.00;99426.78;5020223;28;20451;-72
2021/04/11 03:25:40;;;;;;;7.25;6.05;;;;;;;4.18;100.00;99423.00;5021258;28;20054;-70
2021/04/11 03:28:27;;;;;;;6.07;5.47;;;;;;;4.15;99.46;99431.03;5020555;28;20479;-71
2021/04/11 03:31:25;;;;;;;7.18;6.38;;;;;;;4.13;100.00;99424.97;5016518;28;20050;-71
2021/04/11 03:33:56;;;;;;;9.15;6.40;;;;;;;4.25;100.00;99438.56;5031653;28;20355;-72
2021/04/11 03:36:25;;;;;;;5.95;5.35;;;;;;;4.26;99.77;99437.63;5016462;28;20518;-71
2021/04/11 03:38:52;;;;;;;8.60;6.35;;;;;;;4.19;100.00;99445.84;5016096;28;20088;-70
2021/04/11 03:41:19;;;;;;;9.27;5.85;;;;;;;4.20;100.00;99439.63;5016747;28;20054;-72
2021/04/11 03:43:51;;;;;;;8.45;7.07;;;;;;;4.12;100.00;99433.84;5016443;28;20053;-70
2021/04/11 03:46:35;;;;;;;;;;;;;;;4.10;100.00;99438.34;5016952;28;20046;-72
2021/04/11 03:49:24;;;;;;;6.90;5.53;;;;;;;4.08;100.00;99438.41;5031924;28;19927;-72
2021/04/11 03:51:53;;;;;;;7.60;5.38;;;;;;;3.97;100.00;99451.22;5015986;28;20053;-71
2021/04/11 03:54:23;;;;;;;6.57;5.47;;;;;;;3.88;100.00;99446.38;5017710;28;20049;-72
2021/04/11 03:57:06;;;;;;;6.00;5.40;;;;;;;3.47;100.00;99383.94;5016097;28;20065;-70
2021/04/11 03:59:41;;;;;;;7.88;6.80;;;;;;;3.69;100.00;99441.06;5014722;28;20069;-70
2021/04/11 04:02:09;;;;;;;6.43;5.82;;;;;;;3.75;100.00;99452.19;5015192;28;20053;-70
2021/04/11 04:04:39;;;;;;;6.90;6.20;;;;;;;3.68;100.00;99463.94;5015892;28;20125;-71
2021/04/11 04:07:18;;;;;;;8.27;6.47;;;;;;;3.56;100.00;99477.66;5015913;28;20054;-71
2021/04/11 04:09:54;;;;;;;7.13;6.25;;;;;;;3.69;100.00;99478.00;5015794;28;20395;-71
2021/04/11 04:12:46;;;;;;;8.52;7.47;;;;;;;3.54;100.00;99485.66;5014809;28;20060;-71
2021/04/11 04:15:24;;;;;;;9.07;7.68;;;;;;;3.43;100.00;99488.75;5016098;28;20497;-70
2021/04/11 04:17:57;;;;;;;10.07;7.95;;;;;;;3.40;100.00;99488.88;5015905;28;20061;-71
2021/04/11 04:20:33;;;;;;;8.93;7.65;;;;;;;3.27;100.00;99483.25;5014848;28;20061;-72
2021/04/11 04:23:34;;;;;;;14.25;9.57;;;;;;;3.26;100.00;99498.22;5014735;28;20069;-70
2021/04/11 04:26:18;;;;;;;11.70;9.38;;;;;;;3.31;100.00;99492.75;5015644;28;20061;-73
2021/04/11 04:28:45;;;;;;;13.02;9.52;;;;;;;3.44;100.00;99506.31;5016007;28;20050;-72
2021/04/11 04:31:15;;;;;;;13.32;9.40;;;;;;;3.20;100.00;99500.25;5015805;28;20050;-70
2021/04/11 04:33:54;;;;;;;14.05;10.82;;;;;;;3.33;100.00;99521.72;5014928;28;20163;-72
2021/04/11 04:36:43;;;;;;;14.55;9.95;;;;;;;3.27;100.00;99530.72;5015669;28;20054;-72
2021/04/11 04:39:21;;;;;;;11.18;9.38;;;;;;;3.25;100.00;99528.19;5015527;28;20135;-72
2021/04/11 04:42:00;;;;;;;12.00;9.13;;;;;;;3.11;100.00;99493.59;5014664;28;20149;-73
2021/04/11 04:44:48;;;;;;;15.13;10.27;;;;;;;3.22;100.00;99538.81;5014682;28;20046;-71
2021/04/11 04:47:53;;;;;;;16.05;10.48;;;;;;;3.11;100.00;99526.09;5015505;28;20136;-72
2021/04/11 04:50:29;;;;;;;15.73;11.23;;;;;;;2.79;100.00;99498.38;4993767;28;20058;-74
2021/04/11 04:53:15;;;;;;;14.48;10.95;;;;;;;3.10;100.00;99553.38;5013356;28;20693;-71
2021/04/11 04:55:46;;;;;;;12.50;10.32;;;;;;;3.18;100.00;99553.09;5015539;28;20107;-73
2021/04/11 04:58:25;;;;;;;12.07;9.85;;;;;;;3.20;100.00;99545.09;5014447;28;20061;-72
2021/04/11 05:00:57;;;;;;;14.52;10.23;;;;;;;3.18;100.00;99539.91;5014961;28;20072;-71
2021/04/11 05:03:31;;;;;;;17.85;11.60;;;;;;;3.29;100.00;99554.41;5015210;28;20080;-70
2021/04/11 05:06:15;;;;;;;14.00;9.98;;;;;;;3.12;100.00;99555.97;5014976;28;20100;-70
2021/04/11 05:08:45;;;;;;;13.65;9.18;;;;;;;3.24;100.00;99562.50;5015467;28;20418;-72
2021/04/11 05:11:22;;;;;;;11.23;9.27;;;;;;;3.30;100.00;99562.28;5015417;28;20119;-71
2021/04/11 05:14:04;;;;;;;13.80;9.18;;;;;;;3.18;100.00;99570.66;5015392;28;20120;-69
2021/04/11 05:16:37;;;;;;;13.13;9.38;;;;;;;3.21;100.00;99574.03;5016086;28;20137;-71
2021/04/11 05:19:32;;;;;;;9.48;8.10;;;;;;;3.19;100.00;99577.66;5015303;28;20053;-71
2021/04/11 05:22:28;;;;;;;9.70;7.75;;;;;;;3.16;100.00;99580.44;5015120;28;20085;-72
2021/04/11 05:25:03;;;;;;;10.50;8.15;;;;;;;3.12;100.00;99583.16;5015909;28;20388;-71
2021/04/11 05:27:29;;;;;;;9.05;7.75;;;;;;;3.02;100.00;99581.81;5015178;28;20133;-71
2021/04/11 05:30:06;;;;;;;8.68;6.80;;;;;;;2.92;100.00;99570.78;5015145;28;20050;-71
2021/04/11 05:32:32;;;;;;;11.20;7.10;;;;;;;2.75;100.00;99550.34;5015135;28;20049;-73
2021/04/11 05:34:59;;;;;;;9.48;7.13;;;;;;;3.02;100.00;99588.88;5014823;28;20133;-73
2021/04/11 05:37:34;;;;;;;8.18;6.90;;;;;;;3.02;100.00;99597.66;5014956;28;20398;-73
2021/04/11 05:40:09;;;;;;;8.05;6.93;;;;;;;2.97;100.00;99597.84;5014098;28;20133;-73
2021/04/11 05:42:56;;;;;;;8.07;7.03;;;;;;;2.90;100.00;99598.13;5013848;28;20063;-72
2021/04/11 05:45:26;;;;;;;8.27;7.13;;;;;;;2.92;100.00;99593.63;5014835;28;20050;-71
2021/04/11 05:48:15;;;;;;;9.68;7.50;;;;;;;2.79;100.00;99594.09;5014928;28;20093;-73
2021/04/11 05:51:14;;;;;;;9.43;7.13;;;;;;;2.75;100.00;99605.69;5015076;28;20056;-72
2021/04/11 05:53:46;;;;;;;6.57;5.78;;;;;;;2.83;100.00;99600.97;5014122;28;20145;-73
2021/04/11 05:56:19;;;;;;;7.95;5.85;;;;;;;2.77;100.00;99611.75;5015037;28;20124;-72
2021/04/11 05:58:50;;;;;;;8.45;6.30;;;;;;;2.75;100.00;99618.00;5014554;28;20096;-73
2021/04/11 06:01:25;;;;;;;8.45;6.78;;;;;;;2.71;100.00;99627.78;5013724;28;20351;-73
2021/04/11 06:04:03;;;;;;;10.85;6.82;;;;;;;2.68;100.00;99638.47;5017602;28;20112;-72
2021/04/11 06:06:51;;;;;;;8.70;6.60;;;;;;;2.74;100.00;99642.63;5013622;28;20087;-73
2021/04/11 06:09:32;;;;;;;7.47;5.93;;;;;;;2.67;100.00;99639.38;4998868;28;20061;-71
2021/04/11 06:12:04;;;;;;;6.43;4.97;;;;;;;2.47;99.93;99625.16;4998019;28;20363;-72
2021/04/11 06:14:41;;;;;;;6.03;4.85;;;;;;;2.69;100.00;99656.00;4998593;28;20050;-73
2021/04/11 06:17:10;;;;;;;6.03;4.72;;;;;;;2.44;99.25;99668.28;4998952;28;20419;-73
2021/04/11 06:19:37;;;;;;;5.28;4.32;;;;;;;2.25;99.05;99662.78;5016643;28;20046;-72
2021/04/11 06:22:24;;;;;;;6.35;5.32;;;;;;;2.41;100.00;99688.59;5017014;28;20054;-70
2021/04/11 06:24:58;;;;;;;5.57;4.97;;;;;;;2.33;99.95;99683.56;5010239;28;20043;-71
2021/04/11 06:28:13;;;;;;;7.13;5.63;;;;;;;2.33;99.86;99698.53;5016503;28;20041;-74
2021/04/11 06:30:51;;;;;;;5.90;4.93;;;;;;;2.35;100.00;99694.06;5019020;28;20324;-72
2021/04/11 06:33:33;;;;;;;10.38;6.05;;;;;;;2.31;100.00;99688.88;5016797;28;20136;-73
2021/04/11 06:36:06;;;;;;;7.22;5.03;;;;;;;2.30;100.00;99686.34;5017062;28;20057;-74
2021/04/11 06:38:47;;;;;;;6.57;5.13;;;;;;;2.35;100.00;99688.81;5017367;28;20046;-73
2021/04/11 06:41:44;;;;;;;8.30;5.35;;;;;;;2.29;100.00;99685.47;5017215;28;20049;-72
2021/04/11 06:44:28;;;;;;;7.55;5.25;;;;;;;2.43;100.00;99695.53;5010741;28;20050;-72
2021/04/11 06:46:57;;;;;;;7.68;5.53;;;;;;;2.39;100.00;99700.97;5016942;28;20050;-71
2021/04/11 06:49:38;;;;;;;6.88;5.22;;;;;;;2.38;100.00;99692.19;5017197;28;20050;-75
2021/04/11 06:52:20;;;;;;;8.23;5.50;;;;;;;2.56;100.00;99697.75;5024291;28;20053;-75
2021/04/11 06:55:29;;;;;;;7.68;5.60;;;;;;;2.65;100.00;99696.53;5016038;28;20053;-75
2021/04/11 06:58:23;;;;;;;7.75;5.93;;;;;;;2.62;100.00;99699.28;5016874;28;20050;-76
2021/04/11 07:01:26;;;;;;;7.78;6.53;;;;;;;2.76;100.00;99704.03;5015826;28;20053;-77
2021/04/11 07:04:20;;;;;;;8.10;5.80;;;;;;;2.81;100.00;99692.44;5031410;28;20132;-78
2021/04/11 07:07:04;;;;;;;6.88;5.07;;;;;;;2.82;100.00;99693.28;5015624;28;20689;-76
2021/04/11 07:09:50;;;;;;;5.90;4.90;;;;;;;2.80;100.00;99700.41;5016830;28;20061;-75
2021/04/11 07:12:37;;;;;;;5.60;4.25;;;;;;;2.74;100.00;99711.16;5016812;28;20057;-76
2021/04/11 07:15:17;;;;;;;4.72;4.18;;;;;;;2.81;100.00;99710.88;5013405;28;20049;-77
2021/04/11 07:18:02;;;;;;;3.72;3.13;;;;;;;2.76;98.71;99710.19;5012571;28;20108;-78
2021/04/11 07:21:03;;;;;;;4.40;3.97;;;;;;;2.79;99.61;99701.31;5015516;28;20251;-75
2021/04/11 07:23:47;;;;;;;3.83;3.28;;;;;;;2.75;99.54;99708.47;5015738;28;20076;-76
2021/04/11 07:26:35;;;;;;;4.03;2.95;;;;;;;2.67;99.19;99721.06;5016266;28;20424;-77
2021/04/11 07:29:27;;;;;;;2.88;2.63;;;;;;;2.44;98.96;99720.94;5014436;28;20054;-76
2021/04/11 07:32:18;;;;;;;2.95;2.70;;;;;;;2.44;98.97;99723.59;5015814;28;20076;-76
2021/04/11 07:35:09;;;;;;;3.67;3.13;;;;;;;2.53;100.00;99718.91;5014324;28;20153;-76
2021/04/11 07:38:00;;;;;;;5.60;3.67;;;;;;;2.55;100.00;99733.75;5017014;28;20130;-76
2021/04/11 07:40:45;;;;;;;;;;;;;;;2.50;99.56;99740.09;5023753;28;20420;-77
2021/04/11 07:43:30;;;;;;;3.72;3.33;;;;;;;2.52;99.86;99736.50;5015152;28;19929;-75
2021/04/11 07:46:25;;;;;;;4.18;3.65;;;;;;;2.58;100.00;99752.06;5016098;28;20084;-75
2021/04/11 07:49:22;;;;;;;4.38;3.90;;;;;;;2.50;99.40;99729.56;5015859;28;20042;-75
2021/04/11 07:51:57;;;;;;;5.03;4.35;;;;;;;2.56;100.00;99740.72;5021244;28;20108;-74
2021/04/11 07:55:01;;;;;;;4.68;3.83;;;;;;;2.66;100.00;99756.25;5013413;28;20056;-76
2021/04/11 07:57:36;;;;;;;6.10;4.47;;;;;;;2.73;100.00;99763.03;5008020;28;20083;-74
2021/04/11 08:00:24;;;;;;;5.70;3.50;;;;;;;2.83;100.00;99768.81;5007576;28;20141;-75
2021/04/11 08:03:22;;;;;;;4.10;3.63;;;;;;;2.79;100.00;99768.03;5018189;28;20054;-74
2021/04/11 08:06:28;;;;;;;3.72;3.30;;;;;;;2.89;100.00;99765.09;5017481;28;20073;-74
2021/04/11 08:09:18;;;;;;;3.70;3.35;;;;;;;2.94;100.00;99771.09;4999486;28;20061;-74
2021/04/11 08:11:56;;;;;;;3.38;3.08;;;;;;;2.96;100.00;99770.09;5016100;28;20141;-74
2021/04/11 08:14:22;;;;;;;4.57;3.63;;;;;;;3.04;100.00;99777.72;5016526;28;20046;-75
2021/04/11 08:17:29;;;;;;;7.05;3.58;;;;;;;3.09;100.00;99783.72;5015997;28;20057;-74
2021/04/11 08:20:15;;;;;;;4.10;3.70;;;;;;;2.99;99.86;99790.22;5015790;28;20050;-76
2021/04/11 08:22:53;;;;;;;4.90;4.07;;;;;;;3.00;100.00;99797.22;5015058;28;20107;-72
2021/04/11 08:25:47;;;;;;;4.47;3.80;;;;;;;2.98;99.65;99801.69;5015175;28;20053;-72
2021/04/11 08:28:53;;;;;;;4.30;3.90;;;;;;;2.98;100.00;99794.63;5016145;28;20053;-73
2021/04/11 08:31:56;;;;;;;6.72;4.20;;;;;;;3.04;100.00;99790.91;5015578;28;20057;-71
2021/04/11 08:35:00;;;;;;;5.18;4.30;;;;;;;3.19;100.00;99797.41;5013949;28;20061;-73
2021/04/11 08:37:54;;;;;;;4.35;3.95;;;;;;;3.06;100.00;99796.13;5014959;28;20046;-74
2021/04/11 08:40:49;;;;;;;5.95;4.43;;;;;;;3.10;100.00;99792.47;5013910;28;20427;-74
2021/04/11 08:43:53;;;;;;;6.35;4.03;;;;;;;3.05;100.00;99804.97;5013237;28;20049;-71
2021/04/11 08:46:44;;;;;;;4.53;3.97;;;;;;;3.04;100.00;99813.81;5012891;28;20149;-75
2021/04/11 08:49:26;;;;;;;3.42;3.05;;;;;;;3.02;99.69;99816.47;5015024;28;20077;-75
2021/04/11 08:52:02;;;;;;;5.15;3.20;;;;;;;3.11;100.00;99817.94;5015523;28;20127;-70
2021/04/11 08:54:50;;;;;;;4.00;2.88;;;;;;;3.19;100.00;99817.66;5015540;28;20054;-77
2021/04/11 08:57:37;;;;;;;4.43;3.25;;;;;;;3.17;100.00;99816.84;5015890;28;20054;-75
2021/04/11 09:00:20;;;;;;;3.75;3.00;;;;;;;3.18;100.00;99816.81;4995405;28;20069;-78
2021/04/11 09:03:14;;;;;;;4.43;3.30;;;;;;;3.38;100.00;99826.63;5012417;28;20057;-74
2021/04/11 09:06:05;;;;;;;4.30;3.88;;;;;;;3.35;100.00;99826.75;5014578;28;20053;-74
2021/04/11 09:08:53;;;;;;;3.53;3.15;;;;;;;3.37;99.84;99837.22;5013519;28;20052;-73
2021/04/11 09:11:28;;;;;;;3.25;2.95;;;;;;;3.30;99.71;99833.06;5029526;28;20141;-73
2021/04/11 09:14:20;;;;;;;3.83;3.45;;;;;;;3.23;100.00;99819.28;5014265;28;20069;-75
2021/04/11 09:17:17;;;;;;;4.50;3.67;;;;;;;3.34;100.00;99832.94;5015122;28;20399;-73
2021/04/11 09:19:46;;;;;;;4.07;3.63;;;;;;;3.41;99.87;99846.75;5014215;28;20049;-74
2021/04/11 09:22:13;;;;;;;3.95;3.28;;;;;;;3.43;99.92;99851.97;5014510;28;20049;-78
2021/04/11 09:25:07;;;;;;;3.92;3.40;;;;;;;3.36;99.11;99846.06;5014680;28;20061;-75
2021/04/11 09:28:37;;;;;;;3.58;3.28;;;;;;;3.30;99.28;99855.06;5012520;28;20443;-71
2021/04/11 09:31:13;;;;;;;2.75;2.55;;;;;;;3.22;97.96;99867.66;5011952;28;20046;-73
2021/04/11 09:33:57;;;;;;;3.42;2.70;;;;;;;3.16;99.22;99875.78;5012497;28;20416;-74
2021/04/11 09:36:35;;;;;;;6.65;3.63;;;;;;;3.26;100.00;99878.03;5013521;28;20056;-76
2021/04/11 09:39:15;;;;;;;4.07;3.10;;;;;;;3.12;98.95;99875.03;5017867;28;20049;-75
2021/04/11 09:42:11;;;;;;;4.25;2.63;;;;;;;3.04;99.29;99872.66;5018369;28;20576;-77
2021/04/11 09:45:14;;;;;;;2.70;2.30;;;;;;;3.04;98.42;99899.00;5011688;28;20061;-77
2021/04/11 09:48:08;;;;;;;2.58;2.38;;;;;;;3.03;99.18;99902.56;5011678;28;20100;-74
2021/04/11 09:51:06;;;;;;;2.85;2.42;;;;;;;3.07;99.35;99917.38;5017663;28;20050;-77
2021/04/11 09:53:58;;;;;;;2.80;2.50;;;;;;;3.06;99.18;99907.72;5025304;28;20077;-80
2021/04/11 09:56:57;;;;;;;2.53;2.30;;;;;;;3.03;97.91;99917.53;5019994;28;20064;-77
2021/04/11 09:59:54;;;;;;;2.50;2.10;;;;;;;3.03;98.66;99910.47;5014103;28;20107;-72
2021/04/11 10:02:56;;;;;;;2.88;2.20;;;;;;;3.04;98.30;99917.47;5025337;28;20435;-70
2021/04/11 10:05:25;;;;;;;3.40;2.45;;;;;;;3.05;98.13;99926.25;5019328;28;20050;-70
2021/04/11 10:08:10;;;;;;;4.30;2.40;;;;;;;2.89;97.82;99918.00;4999313;28;20054;-72
2021/04/11 10:10:49;;;;;;;3.25;2.28;;;;;;;3.04;99.16;99924.53;5011680;28;20482;-72
2021/04/11 10:13:34;;;;;;;3.17;2.60;;;;;;;3.04;97.60;99927.19;5018106;28;20069;-71
2021/04/11 10:16:29;;;;;;;4.72;2.90;;;;;;;3.10;99.18;99927.81;5021282;28;20054;-72
2021/04/11 10:19:20;;;;;;;2.92;2.63;;;;;;;3.13;98.01;99924.22;5017828;28;20517;-71
2021/04/11 10:21:59;;;;;;;4.93;3.38;;;;;;;3.14;99.65;99919.81;5016800;28;20057;-72
2021/04/11 10:24:37;;;;;;;4.30;3.20;;;;;;;3.21;99.15;99924.81;5016520;28;20048;-72
2021/04/11 10:27:11;;;;;;;3.90;2.92;;;;;;;3.29;98.77;99932.47;4999368;28;20062;-73
2021/04/11 10:29:43;;;;;;;5.07;2.90;;;;;;;3.36;98.74;99931.34;5034528;28;20053;-72
2021/04/11 10:32:39;;;;;;;5.47;3.30;;;;;;;3.43;98.17;99923.22;5016959;28;20053;-71
2021/04/11 10:35:24;;;;;;;4.65;2.92;;;;;;;3.44;98.00;99931.09;5016693;28;20431;-71
2021/04/11 10:38:03;;;;;;;5.22;2.85;;;;;;;3.51;97.95;99923.81;5016337;28;20054;-70
2021/04/11 10:41:05;;;;;;;4.18;3.28;;;;;;;3.50;96.42;99937.91;5017512;28;20430;-71
2021/04/11 10:44:09;;;;;;;4.47;2.92;;;;;;;3.46;96.88;99941.56;4999750;28;20046;-73
2021/04/11 10:47:09;;;;;;;5.10;2.65;;;;;;;3.44;96.44;99944.28;4994151;28;20061;-73
2021/04/11 10:49:54;;;;;;;3.97;2.95;;;;;;;3.62;98.12;99947.16;5013816;28;20046;-73
2021/04/11 10:52:26;;;;;;;4.75;2.65;;;;;;;3.55;96.40;99951.81;5014373;28;20053;-71
2021/04/11 10:55:14;;;;;;;2.90;2.40;;;;;;;3.58;96.59;99949.06;5016868;28;20049;-74
2021/04/11 10:58:16;;;;;;;4.82;3.08;;;;;;;3.65;97.52;99955.84;5014776;28;20352;-71
2021/04/11 11:01:01;;;;;;;5.80;3.08;;;;;;;3.81;96.82;99968.47;5015237;28;20072;-74
2021/04/11 11:03:36;;;;;;;3.55;3.15;;;;;;;3.92;96.74;99976.88;5016363;28;20107;-74
2021/04/11 11:06:30;;;;;;;5.30;2.97;;;;;;;3.94;97.05;99975.03;5014472;28;20455;-71
2021/04/11 11:09:21;;;;;;;5.38;3.83;;;;;;;3.92;97.01;99983.97;5014125;28;20088;-74
2021/04/11 11:11:56;;;;;;;6.10;2.70;;;;;;;3.91;96.00;99977.81;5005958;28;20050;-76
2021/04/11 11:14:36;;;;;;;6.15;3.45;;;;;;;3.85;95.78;99980.66;4997296;28;20121;-72
2021/04/11 11:17:32;;;;;;;7.80;3.00;;;;;;;3.88;95.49;99977.91;4997139;28;20050;-72
2021/04/11 11:20:19;;;;;;;5.60;3.28;;;;;;;3.85;96.44;99985.94;4995985;28;20276;-70
2021/04/11 11:23:01;;;;;;;4.60;2.95;;;;;;;3.87;nan;99997.28;5008175;28;20435;-70
2021/04/11 11:25:52;;;;;;;4.35;2.80;;;;;;;3.76;94.92;99999.47;5015305;28;20080;-69
2021/04/11 11:28:33;;;;;;;5.80;2.70;;;;;;;3.63;96.00;100001.66;5016999;28;20400;-76
2021/04/11 11:31:22;;;;;;;13.02;2.92;;;;;;;3.75;95.69;100000.38;5016849;28;20115;-73
2021/04/11 11:34:03;;;;;;;5.97;2.78;;;;;;;3.65;93.98;99998.06;5016705;28;20702;-77
2021/04/11 11:36:51;;;;;;;5.18;3.10;;;;;;;3.69;95.60;100003.25;5016597;28;20068;-70
2021/04/11 11:39:28;;;;;;;5.57;2.75;;;;;;;3.55;94.32;99991.41;5016795;28;20042;-72
2021/04/11 11:42:13;;;;;;;3.70;2.75;;;;;;;3.64;95.10;99988.44;5015344;28;20427;-73
2021/04/11 11:45:20;;;;;;;6.20;3.00;;;;;;;3.84;95.99;100002.69;5016469;28;20054;-74
2021/04/11 11:48:14;;;;;;;5.25;2.45;;;;;;;3.89;94.44;99997.25;5016086;28;20132;-72
2021/04/11 11:51:08;;;;;;;4.57;2.83;;;;;;;3.88;95.42;99999.00;5016445;28;20054;-74
2021/04/11 11:53:37;;;;;;;19.83;3.88;;;;;;;3.96;95.61;100011.13;5025905;28;20049;-71
2021/04/11 11:56:17;;;;;;;4.30;2.60;;;;;;;4.05;94.95;100002.84;5022967;28;20042;-71
2021/04/11 11:58:50;;;;;;;3.33;2.90;;;;;;;3.88;94.48;100012.22;5008371;28;20383;-69
2021/04/11 12:01:31;;;;;;;4.75;2.97;;;;;;;3.93;96.33;100017.38;5015101;28;20169;-69
2021/04/11 12:04:33;;;;;;;6.90;3.38;;;;;;;4.04;95.31;100011.69;5012654;28;20121;-72
2021/04/11 12:07:06;;;;;;;4.40;2.55;;;;;;;3.98;94.45;100007.47;5015796;28;20045;-70
2021/04/11 12:09:43;;;;;;;7.82;2.85;;;;;;;4.07;95.23;100019.50;5014237;28;20054;-69
2021/04/11 12:12:26;;;;;;;3.25;2.33;;;;;;;4.09;93.84;100022.97;5014343;28;20054;-71
2021/04/11 12:15:24;;;;;;;5.47;2.83;;;;;;;4.13;93.52;100021.91;5010728;28;20104;-70
2021/04/11 12:18:04;;;;;;;4.38;2.58;;;;;;;4.02;93.20;100006.44;5015693;28;20053;-75
2021/04/11 12:21:00;;;;;;;3.65;2.40;;;;;;;4.18;94.47;100029.66;5014145;28;20137;-70
2021/04/11 12:23:32;;;;;;;7.28;2.95;;;;;;;4.19;94.21;100031.38;5015311;28;20073;-71
2021/04/11 12:26:10;;;;;;;4.05;2.50;;;;;;;4.20;95.22;100039.25;5011386;28;20165;-71
2021/04/11 12:28:38;;;;;;;3.33;2.92;;;;;;;4.18;93.74;100033.19;5015310;28;20049;-69
2021/04/11 12:31:23;;;;;;;4.28;2.28;;;;;;;4.14;93.01;100031.56;5012670;28;20055;-73
2021/04/11 12:34:03;;;;;;;4.22;2.30;;;;;;;4.17;91.68;100027.94;5015442;28;20450;-73